WetterOnline ( https://www.wetteronline.de )

Wetter aktuell Norderney

Aktuelles Wetter: Norderney (16m)

6-stündlich | Neueste Meldungen
Ortszeit Temperatur Wetter
Mo, 26.02. 1:00 4.6° C fast wolkenlos
So, 25.02. 19:00 5.1° C fast wolkenlos
So, 25.02. 13:00 6.0° C bewölkt
So, 25.02. 7:00 3.7° C leichter Regen
So, 25.02. 1:00 4.5° C bedeckt
Sa, 24.02. 19:00 4.8° C bedeckt
Sa, 24.02. 13:00 6.6° C bewölkt
Sa, 24.02. 7:00 3.5° C bedeckt
Ortszeit Temperatur Wetter
Mo, 26.02. 1:30 4.6° C wolkig
Mo, 26.02. 1:20 4.6° C wolkig
Mo, 26.02. 1:10 4.7° C wolkig
Mo, 26.02. 1:00 4.6° C fast wolkenlos
Mo, 26.02. 0:50 4.6° C fast wolkenlos
Mo, 26.02. 0:40 4.5° C leicht bewölkt
Mo, 26.02. 0:30 4.8° C fast wolkenlos
Mo, 26.02. 0:00 4.7° C wolkenlos
So, 25.02. 23:30 4.4° C leicht bewölkt
So, 25.02. 23:00 4.3° C wolkig
So, 25.02. 22:30 4.6° C wolkig
Ortszeit Relative Feuchte Sichtweite
Mo, 26.02. 1:00 86% 30 km
So, 25.02. 19:00 84% 50 km
So, 25.02. 13:00 86% 50 km
So, 25.02. 7:00 94% 25 km
So, 25.02. 1:00 86% 45 km
Sa, 24.02. 19:00 88% 45 km
Sa, 24.02. 13:00 83% 28 km
Sa, 24.02. 7:00 92% 30 km
Ortszeit Relative Feuchte Sichtweite
Mo, 26.02. 1:30 84% 45 km
Mo, 26.02. 1:20 84% -
Mo, 26.02. 1:10 84% -
Mo, 26.02. 1:00 86% 30 km
Mo, 26.02. 0:50 86% -
Mo, 26.02. 0:40 85% -
Mo, 26.02. 0:30 83% 50 km
Mo, 26.02. 0:00 86% 30 km
So, 25.02. 23:30 84% >70 km
So, 25.02. 23:00 86% 60 km
So, 25.02. 22:30 83% 40 km
Ortszeit Niederschlagsmenge Niederschlagsart
Mo, 26.02. 1:00 0.0 l/m2 in 6 Std. -
So, 25.02. 19:00 1 l/m2 in 12 Std. Regen
So, 25.02. 13:00 1 l/m2 in 6 Std. Regen
So, 25.02. 7:00 0.8 l/m2 in 12 Std. Regen
So, 25.02. 1:00 0.1 l/m2 in 6 Std. Regen
Sa, 24.02. 19:00 2 l/m2 in 12 Std. Regen
Sa, 24.02. 13:00 0.0 l/m2 in 6 Std. -
Sa, 24.02. 7:00 3 l/m2 in 12 Std. -
Ortszeit Niederschlagsmenge Niederschlagsart
Mo, 26.02. 1:30 0.0 l/m2 in 30 Min -
Mo, 26.02. 1:20 keine Meldung -
Mo, 26.02. 1:10 keine Meldung -
Mo, 26.02. 1:00 0.0 l/m2 in 1 Std. -
Mo, 26.02. 0:50 keine Meldung -
Mo, 26.02. 0:40 keine Meldung -
Mo, 26.02. 0:30 0.0 l/m2 in 30 Min -
Mo, 26.02. 0:00 0.0 l/m2 in 1 Std. -
So, 25.02. 23:30 0.0 l/m2 in 30 Min -
So, 25.02. 23:00 0.0 l/m2 in 1 Std. -
So, 25.02. 22:30 0.0 l/m2 in 30 Min -
Ortszeit Stärke Spitze Richtung
km/h Bft. km/h Grad Sektor
Mo, 26.02. 1:00 24 4 30 40° NO
So, 25.02. 19:00 11 2 22 30° NO
So, 25.02. 13:00 18 3 32 220° SW
So, 25.02. 7:00 19 3 35 150° SO
So, 25.02. 1:00 17 3 41 170° S
Sa, 24.02. 19:00 20 4 48 190° S
Sa, 24.02. 13:00 17 3 31 190° S
Sa, 24.02. 7:00 13 3 28 160° S
Ortszeit Stärke Spitze Richtung
km/h Bft. km/h Grad Sektor
Mo, 26.02. 1:30 25 4 29 40° NO
Mo, 26.02. 1:20 25 4 - 40° NO
Mo, 26.02. 1:10 25 4 - 40° NO
Mo, 26.02. 1:00 24 4 30 40° NO
Mo, 26.02. 0:50 24 4 - 40° NO
Mo, 26.02. 0:40 22 4 - 50° NO
Mo, 26.02. 0:30 25 4 29 40° NO
Mo, 26.02. 0:00 22 4 28 50° NO
So, 25.02. 23:30 14 3 18 70° O
So, 25.02. 23:00 9 2 26 80° O
So, 25.02. 22:30 18 3 25 50° NO
Ortszeit Untergrenze Bedeckung Gattung
total tief tief mittel hoch
Mo, 26.02. 1:00 390 m 1/8 1/8 - - -
So, 25.02. 19:00 9000 m 2/8 0/8 - - -
So, 25.02. 13:00 510 m 7/8 7/8 - - -
So, 25.02. 7:00 510 m 7/8 7/8 - - -
So, 25.02. 1:00 870 m 8/8 8/8 - - -
Sa, 24.02. 19:00 540 m 8/8 8/8 - - -
Sa, 24.02. 13:00 510 m 7/8 7/8 - - -
Sa, 24.02. 7:00 5400 m 8/8 8/8 - - -
Ortszeit Bedeckungsgrad in Achtel und Wolkenuntergrenze
Mo, 26.02. 1:30 6(9000m) 7(9000m)
Mo, 26.02. 1:20 6(9000m) 7(9000m)
Mo, 26.02. 1:10 5
Mo, 26.02. 1:00 1(390m)
Mo, 26.02. 0:50 1(390m) 1(9000m)
Mo, 26.02. 0:40 2
Mo, 26.02. 0:30 1(9000m)
Mo, 26.02. 0:00 keine Wolken
So, 25.02. 23:30 6(9000m)
So, 25.02. 23:00 7(8700m)
So, 25.02. 22:30 7(8700m)
Ortszeit Luftdruck NN (hPa) Tendenz (hPa in 3 Std.)
Mo, 26.02. 1:00 1004 + 0,6
So, 25.02. 19:00 1002 + 1,1
So, 25.02. 13:00 1001 + 0,6
So, 25.02. 7:00 1000 - 0,7
So, 25.02. 1:00 1001 + 0,1
Sa, 24.02. 19:00 1000 + 1,4
Sa, 24.02. 13:00 998 + 0,8
Sa, 24.02. 7:00 995 + 1,3
Ortszeit Luftdruck NN (hPa) Tendenz (hPa in 3 Std.)
Mo, 26.02. 1:30 1004 + 0,7
Mo, 26.02. 1:20 1004 keine Meldung
Mo, 26.02. 1:10 1004 keine Meldung
Mo, 26.02. 1:00 1004 + 0,6
Mo, 26.02. 0:50 1004 keine Meldung
Mo, 26.02. 0:40 1004 keine Meldung
Mo, 26.02. 0:30 1004 + 0,5
Mo, 26.02. 0:00 1003 + 0,6
So, 25.02. 23:30 1003 + 0,6
So, 25.02. 23:00 1003 + 0,5
So, 25.02. 22:30 1003 + 0,8
Ortszeit Schneehöhe (cm)
Mo, 26.02. 1:00 0
So, 25.02. 19:00 0
So, 25.02. 13:00 0
So, 25.02. 7:00 0
So, 25.02. 1:00 0
Sa, 24.02. 19:00 0
Sa, 24.02. 13:00 0
Sa, 24.02. 7:00 0
Ortszeit Schneehöhe (cm)
Mo, 26.02. 1:30 0
Mo, 26.02. 1:20 0
Mo, 26.02. 1:10 -
Mo, 26.02. 1:00 0
Mo, 26.02. 0:50 0
Mo, 26.02. 0:40 -
Mo, 26.02. 0:30 0
Mo, 26.02. 0:00 0
So, 25.02. 23:30 0
So, 25.02. 23:00 0
So, 25.02. 22:30 0
Link zu dieser Seite / Seite empfehlen

Das Wetter in ...